Погода Макаренцына неделю

Могилёвская область, Белоруссия

24 - 30 мая
  • 24мая
    Сегодня
    +10°
    +22°
    Ясно и безоблачно
    ВремяПогодаТемператураВлажностьДавлениеВетер, м/сВероятность осадков
    00:00Ясно и безоблачно+15°C53 %753 мм5.3 м/с2 %
    03:00Ясно и безоблачно+13°C57 %754 мм4.9 м/с2 %
    06:00Ясно и безоблачно+12°C58 %754 мм4.6 м/с2 %
    09:00Ясно и безоблачно+15°C50 %755 мм4.2 м/с2 %
    12:00Ясно и безоблачно+20°C42 %755 мм4.2 м/с2 %
    15:00Ясно и безоблачно+21°C37 %755 мм4.4 м/с2 %
    18:00Небольшая облачность+20°C40 %754 мм4.4 м/с2 %
    21:00Ясно и безоблачно+16°C52 %754 мм3.4 м/с2 %
  • 25мая
    Суббота
    +8°
    +24°
    Ясно и безоблачно
    ВремяПогодаТемператураВлажностьДавлениеВетер, м/сВероятность осадков
    00:00Практически безоблачно+13°C58 %754 мм3.6 м/с2 %
    03:00Небольшая облачность+11°C64 %754 мм3.6 м/с2 %
    06:00Ясно и безоблачно+11°C65 %754 мм3.5 м/с2 %
    09:00Ясно и безоблачно+16°C50 %754 мм3.2 м/с2 %
    12:00Ясно и безоблачно+22°C40 %754 мм3.4 м/с2 %
    15:00Ясно и безоблачно+23°C35 %754 мм3.6 м/с1 %
    18:00Ясно и безоблачно+22°C34 %753 мм3.1 м/с2 %
    21:00Ясно и безоблачно+17°C59 %752 мм2.4 м/с2 %
  • 26мая
    Воскресенье
    +13°
    +24°
    Ясно и безоблачно
    ВремяПогодаТемператураВлажностьДавлениеВетер, м/сВероятность осадков
    00:00Ясно и безоблачно+13°C75 %752 мм2.2 м/с2 %
    03:00Небольшая облачность+11°C78 %752 мм2.2 м/с2 %
    06:00Практически безоблачно+11°C80 %752 мм1.6 м/с2 %
    09:00Облачно с прояснениями+18°C57 %753 мм1.8 м/с2 %
    12:00Ясно и безоблачно+23°C36 %753 мм2.1 м/с2 %
    15:00Ясно и безоблачно+23°C34 %752 мм2.3 м/с2 %
    18:00Ясно и безоблачно+23°C35 %752 мм1.8 м/с2 %
    21:00Ясно и безоблачно+19°C63 %752 мм1.1 м/с2 %
  • 27мая
    Понедельник
    +14°
    +26°
    Практически безоблачно
    ВремяПогодаТемператураВлажностьДавлениеВетер, м/сВероятность осадков
    00:00Практически безоблачно+15°C70 %752 мм2.3 м/с2 %
    03:00Ясно и безоблачно+14°C70 %752 мм2.7 м/с2 %
    06:00Ясно и безоблачно+14°C71 %752 мм3.1 м/с2 %
    09:00Ясно и безоблачно+20°C62 %753 мм2.3 м/с2 %
    12:00Ясно и безоблачно+25°C44 %753 мм2.5 м/с5 %
    15:00Практически безоблачно+25°C45 %752 мм3.0 м/с32 %
    18:00Облачно с прояснениями+24°C53 %752 мм2.0 м/с35 %
    21:00Практически безоблачно+20°C66 %752 мм1.5 м/с10 %
Мы используем cookies
Соглашаюсь